Aviation Digital Data Service (ADDS)

Output produced by METARs form (0720 UTC 19 February 2019)
found at http://www.aviationweather.gov/metar/data/
 
Forecast for: FNHU (HUAMBO/NOVA LISB, AO)
Text: TAF FNHU 182300Z 1900/1912 VRB03KT 8000 SCT020
Forecast period: 0000 to 1000 UTC 19 February 2019
Forecast type: FROM: standard forecast or significant change
Winds: variable direction winds at 3 MPH (3 knots; 1.5 m/s)
Visibility: 5 miles (8 km)
Ceiling: at least 12,000 feet AGL
Clouds: scattered clouds at 2000 feet AGL
Weather: no significant weather forecast for this period
Text: PROB30
Forecast period: 0300 to 0700 UTC 19 February 2019
Forecast type: TEMPORARY: The following changes expected for less than half the time period
Visibility: 3 miles (5 km)
Ceiling: 2500 feet AGL
Clouds: scattered clouds at 1500 feet AGL
few clouds at 2000 feet AGL
broken clouds at 2500 feet AGL
Weather: TSRA  (rain associated with thunderstorm(s))
Text: TEMPO 1903/1907 5000 TSRA SCT015 FEW020CB BKN025
Forecast period: 1000 to 1200 UTC 19 February 2019
Forecast type: BECOMING: Conditions expected to become as follows by 1200 UTC 19 February 2019
Winds: variable direction winds at 3 MPH (3 knots; 1.5 m/s)
Visibility: 4 miles (7 km)
Ceiling: at least 12,000 feet AGL
Clouds: scattered clouds at 2000 feet AGL
Weather: -TSRA  (light rain associated with thunderstorm(s))